ヴィエンチャン の空港の天気 - METARとTAF

ワットタイ国際空港 ( VLVT / VTE ) - ラオス ヴィエンチャン
飛行場実況気象(Metar)
観測時間05/26 19:30 ICT (05/26 12:30 UTC)
風向・風速東 2m/s
視程5000m
天気現象もや
少しの雲 雲底高度 1520m
気温30℃
湿度79%
気圧1007hPa
METARVLVT 261230Z 09004KT 5000 BR FEW050 30/26 Q1007 NOSIG
過去の天気等 Google飛行場航空写真 Wunderground天気予報

過去48時間のMETAR

飛行場予報(TAF)
発表時間: 5/27 00:00 ICT (5/26 17:00 UTC)
予報対象時間: 27日1時 ICT ~ 28日1時 ICT
風向・風速南西 2m/s
視程4000m
天気現象もや
少しの雲 雲底高度 1520m
全天の4割程度の雲 雲底高度 3050m
TAF VLVT 261700Z 2618/2718 22004KT 4000 BR FEW050 SCT100